sensor_id;sensor_type;location;lat;lon;timestamp;P1;durP1;ratioP1;P2;durP2;ratioP2
2940;SDS011;1480;51.456;6.670;2023-11-21T00:02:21;11.67;;;6.77;;
2940;SDS011;1480;51.456;6.670;2023-11-21T00:04:47;14.77;;;7.77;;
2940;SDS011;1480;51.456;6.670;2023-11-21T00:07:14;12.60;;;7.10;;
2940;SDS011;1480;51.456;6.670;2023-11-21T00:09:41;10.30;;;7.80;;
2940;SDS011;1480;51.456;6.670;2023-11-21T00:12:07;14.67;;;8.60;;
2940;SDS011;1480;51.456;6.670;2023-11-21T00:14:35;13.47;;;8.50;;
2940;SDS011;1480;51.456;6.670;2023-11-21T00:17:02;12.83;;;6.73;;
2940;SDS011;1480;51.456;6.670;2023-11-21T00:19:30;13.70;;;8.20;;
2940;SDS011;1480;51.456;6.670;2023-11-21T00:21:57;12.47;;;8.90;;
2940;SDS011;1480;51.456;6.670;2023-11-21T00:24:24;9.83;;;7.33;;
2940;SDS011;1480;51.456;6.670;2023-11-21T00:26:51;10.50;;;7.00;;
2940;SDS011;1480;51.456;6.670;2023-11-21T00:29:18;15.20;;;8.10;;
2940;SDS011;1480;51.456;6.670;2023-11-21T00:31:45;14.80;;;7.77;;
2940;SDS011;1480;51.456;6.670;2023-11-21T00:34:11;17.10;;;7.53;;
2940;SDS011;1480;51.456;6.670;2023-11-21T00:36:40;10.97;;;6.90;;
2940;SDS011;1480;51.456;6.670;2023-11-21T00:39:06;10.70;;;7.50;;
2940;SDS011;1480;51.456;6.670;2023-11-21T00:41:33;10.57;;;6.93;;
2940;SDS011;1480;51.456;6.670;2023-11-21T00:44:01;10.13;;;8.20;;
2940;SDS011;1480;51.456;6.670;2023-11-21T00:46:28;11.53;;;7.57;;
2940;SDS011;1480;51.456;6.670;2023-11-21T00:48:55;13.33;;;8.77;;
2940;SDS011;1480;51.456;6.670;2023-11-21T00:51:21;15.53;;;9.17;;
2940;SDS011;1480;51.456;6.670;2023-11-21T00:53:49;12.27;;;6.67;;
2940;SDS011;1480;51.456;6.670;2023-11-21T00:56:16;11.40;;;7.70;;
2940;SDS011;1480;51.456;6.670;2023-11-21T00:58:44;15.03;;;7.87;;
2940;SDS011;1480;51.456;6.670;2023-11-21T01:01:14;11.70;;;7.60;;
2940;SDS011;1480;51.456;6.670;2023-11-21T01:03:41;10.13;;;6.50;;
2940;SDS011;1480;51.456;6.670;2023-11-21T01:06:08;12.03;;;7.43;;
2940;SDS011;1480;51.456;6.670;2023-11-21T01:08:35;10.73;;;7.00;;
2940;SDS011;1480;51.456;6.670;2023-11-21T01:11:03;11.37;;;7.03;;
2940;SDS011;1480;51.456;6.670;2023-11-21T01:13:32;9.33;;;6.83;;
2940;SDS011;1480;51.456;6.670;2023-11-21T01:16:00;11.70;;;6.33;;
2940;SDS011;1480;51.456;6.670;2023-11-21T01:18:27;10.73;;;6.97;;
2940;SDS011;1480;51.456;6.670;2023-11-21T01:20:54;13.03;;;6.83;;
2940;SDS011;1480;51.456;6.670;2023-11-21T01:23:21;12.13;;;7.70;;
2940;SDS011;1480;51.456;6.670;2023-11-21T01:25:48;10.17;;;6.50;;
2940;SDS011;1480;51.456;6.670;2023-11-21T01:28:18;8.77;;;5.77;;
2940;SDS011;1480;51.456;6.670;2023-11-21T01:30:45;11.13;;;6.83;;
2940;SDS011;1480;51.456;6.670;2023-11-21T01:33:11;13.90;;;8.40;;
2940;SDS011;1480;51.456;6.670;2023-11-21T01:35:40;10.40;;;7.17;;
2940;SDS011;1480;51.456;6.670;2023-11-21T01:38:07;11.90;;;7.10;;
2940;SDS011;1480;51.456;6.670;2023-11-21T01:40:34;14.00;;;7.13;;
2940;SDS011;1480;51.456;6.670;2023-11-21T01:43:00;10.10;;;6.10;;
2940;SDS011;1480;51.456;6.670;2023-11-21T01:45:29;9.63;;;6.03;;
2940;SDS011;1480;51.456;6.670;2023-11-21T01:47:58;7.30;;;6.23;;
2940;SDS011;1480;51.456;6.670;2023-11-21T01:50:26;13.00;;;6.93;;
2940;SDS011;1480;51.456;6.670;2023-11-21T01:52:52;14.17;;;8.07;;
2940;SDS011;1480;51.456;6.670;2023-11-21T01:55:19;17.30;;;7.20;;
2940;SDS011;1480;51.456;6.670;2023-11-21T01:57:46;16.03;;;6.97;;
2940;SDS011;1480;51.456;6.670;2023-11-21T02:00:13;16.40;;;7.70;;
2940;SDS011;1480;51.456;6.670;2023-11-21T02:02:46;10.83;;;6.17;;
2940;SDS011;1480;51.456;6.670;2023-11-21T02:05:14;9.70;;;7.27;;
2940;SDS011;1480;51.456;6.670;2023-11-21T02:07:43;9.97;;;7.10;;
2940;SDS011;1480;51.456;6.670;2023-11-21T02:10:13;14.67;;;7.23;;
2940;SDS011;1480;51.456;6.670;2023-11-21T02:12:40;12.90;;;7.20;;
2940;SDS011;1480;51.456;6.670;2023-11-21T02:15:08;13.50;;;8.10;;
2940;SDS011;1480;51.456;6.670;2023-11-21T02:17:40;13.80;;;8.73;;
2940;SDS011;1480;51.456;6.670;2023-11-21T02:20:10;12.17;;;7.70;;
2940;SDS011;1480;51.456;6.670;2023-11-21T02:22:41;12.40;;;7.87;;
2940;SDS011;1480;51.456;6.670;2023-11-21T02:25:10;13.80;;;8.33;;
2940;SDS011;1480;51.456;6.670;2023-11-21T02:27:37;15.70;;;8.70;;
2940;SDS011;1480;51.456;6.670;2023-11-21T02:30:04;13.10;;;7.67;;
2940;SDS011;1480;51.456;6.670;2023-11-21T02:32:32;13.50;;;8.83;;
2940;SDS011;1480;51.456;6.670;2023-11-21T02:34:59;12.20;;;8.50;;
2940;SDS011;1480;51.456;6.670;2023-11-21T02:37:28;17.53;;;8.50;;
2940;SDS011;1480;51.456;6.670;2023-11-21T02:39:55;11.73;;;8.40;;
2940;SDS011;1480;51.456;6.670;2023-11-21T02:42:23;14.43;;;8.60;;
2940;SDS011;1480;51.456;6.670;2023-11-21T02:44:50;14.77;;;7.83;;
2940;SDS011;1480;51.456;6.670;2023-11-21T02:47:16;12.40;;;8.60;;
2940;SDS011;1480;51.456;6.670;2023-11-21T02:49:43;15.10;;;7.37;;
2940;SDS011;1480;51.456;6.670;2023-11-21T02:52:10;14.90;;;8.50;;
2940;SDS011;1480;51.456;6.670;2023-11-21T02:54:36;13.30;;;8.87;;
2940;SDS011;1480;51.456;6.670;2023-11-21T02:57:03;19.90;;;9.80;;
2940;SDS011;1480;51.456;6.670;2023-11-21T02:59:32;11.43;;;7.50;;
2940;SDS011;1480;51.456;6.670;2023-11-21T03:01:59;18.63;;;9.77;;
2940;SDS011;1480;51.456;6.670;2023-11-21T03:04:25;21.63;;;9.87;;
2940;SDS011;1480;51.456;6.670;2023-11-21T03:06:52;18.53;;;9.93;;
2940;SDS011;1480;51.456;6.670;2023-11-21T03:09:19;17.07;;;9.50;;
2940;SDS011;1480;51.456;6.670;2023-11-21T03:11:45;15.87;;;10.07;;
2940;SDS011;1480;51.456;6.670;2023-11-21T03:14:12;19.90;;;9.10;;
2940;SDS011;1480;51.456;6.670;2023-11-21T03:16:40;15.77;;;9.20;;
2940;SDS011;1480;51.456;6.670;2023-11-21T03:19:07;16.77;;;9.60;;
2940;SDS011;1480;51.456;6.670;2023-11-21T03:21:34;18.40;;;9.57;;
2940;SDS011;1480;51.456;6.670;2023-11-21T03:24:01;13.63;;;8.67;;
2940;SDS011;1480;51.456;6.670;2023-11-21T03:26:28;18.17;;;9.97;;
2940;SDS011;1480;51.456;6.670;2023-11-21T03:28:57;19.80;;;9.93;;
2940;SDS011;1480;51.456;6.670;2023-11-21T03:31:24;16.63;;;9.20;;
2940;SDS011;1480;51.456;6.670;2023-11-21T03:33:53;14.40;;;8.87;;
2940;SDS011;1480;51.456;6.670;2023-11-21T03:36:19;16.40;;;9.77;;
2940;SDS011;1480;51.456;6.670;2023-11-21T03:38:47;19.83;;;10.87;;
2940;SDS011;1480;51.456;6.670;2023-11-21T03:41:15;19.23;;;8.53;;
2940;SDS011;1480;51.456;6.670;2023-11-21T03:43:42;16.00;;;10.30;;
2940;SDS011;1480;51.456;6.670;2023-11-21T03:46:08;22.40;;;11.37;;
2940;SDS011;1480;51.456;6.670;2023-11-21T03:48:35;22.27;;;10.50;;
2940;SDS011;1480;51.456;6.670;2023-11-21T03:51:03;14.00;;;8.17;;
2940;SDS011;1480;51.456;6.670;2023-11-21T03:53:33;17.67;;;9.30;;
2940;SDS011;1480;51.456;6.670;2023-11-21T03:56:01;14.03;;;8.93;;
2940;SDS011;1480;51.456;6.670;2023-11-21T03:58:28;18.30;;;9.50;;
2940;SDS011;1480;51.456;6.670;2023-11-21T04:00:55;16.27;;;9.30;;
2940;SDS011;1480;51.456;6.670;2023-11-21T04:03:22;17.77;;;10.47;;
2940;SDS011;1480;51.456;6.670;2023-11-21T04:05:48;17.47;;;9.77;;
2940;SDS011;1480;51.456;6.670;2023-11-21T04:08:16;16.70;;;9.40;;
2940;SDS011;1480;51.456;6.670;2023-11-21T04:10:43;18.03;;;9.20;;
2940;SDS011;1480;51.456;6.670;2023-11-21T04:13:10;17.70;;;10.43;;
2940;SDS011;1480;51.456;6.670;2023-11-21T04:15:36;12.10;;;9.70;;
2940;SDS011;1480;51.456;6.670;2023-11-21T04:18:03;20.40;;;10.50;;
2940;SDS011;1480;51.456;6.670;2023-11-21T04:20:30;16.80;;;9.37;;
2940;SDS011;1480;51.456;6.670;2023-11-21T04:22:57;20.03;;;11.73;;
2940;SDS011;1480;51.456;6.670;2023-11-21T04:25:25;19.77;;;8.10;;
2940;SDS011;1480;51.456;6.670;2023-11-21T04:27:52;20.87;;;11.20;;
2940;SDS011;1480;51.456;6.670;2023-11-21T04:30:19;27.13;;;9.60;;
2940;SDS011;1480;51.456;6.670;2023-11-21T04:32:46;18.60;;;8.63;;
2940;SDS011;1480;51.456;6.670;2023-11-21T04:35:12;19.90;;;9.30;;
2940;SDS011;1480;51.456;6.670;2023-11-21T04:37:40;21.50;;;10.93;;
2940;SDS011;1480;51.456;6.670;2023-11-21T04:40:07;19.50;;;9.97;;
2940;SDS011;1480;51.456;6.670;2023-11-21T04:42:36;17.67;;;9.50;;
2940;SDS011;1480;51.456;6.670;2023-11-21T04:45:03;14.70;;;8.77;;
2940;SDS011;1480;51.456;6.670;2023-11-21T04:47:33;15.33;;;9.17;;
2940;SDS011;1480;51.456;6.670;2023-11-21T04:50:00;15.00;;;9.10;;
2940;SDS011;1480;51.456;6.670;2023-11-21T04:52:28;14.40;;;8.40;;
2940;SDS011;1480;51.456;6.670;2023-11-21T04:54:55;18.90;;;9.70;;
2940;SDS011;1480;51.456;6.670;2023-11-21T04:57:23;17.17;;;9.57;;
2940;SDS011;1480;51.456;6.670;2023-11-21T04:59:51;15.77;;;8.90;;
2940;SDS011;1480;51.456;6.670;2023-11-21T05:02:18;16.30;;;9.07;;
2940;SDS011;1480;51.456;6.670;2023-11-21T05:04:46;16.47;;;9.10;;
2940;SDS011;1480;51.456;6.670;2023-11-21T05:07:13;16.50;;;10.13;;
2940;SDS011;1480;51.456;6.670;2023-11-21T05:09:41;27.97;;;12.43;;
2940;SDS011;1480;51.456;6.670;2023-11-21T05:12:09;16.37;;;9.03;;
2940;SDS011;1480;51.456;6.670;2023-11-21T05:14:36;16.73;;;10.70;;
2940;SDS011;1480;51.456;6.670;2023-11-21T05:17:04;17.63;;;10.10;;
2940;SDS011;1480;51.456;6.670;2023-11-21T05:19:33;23.90;;;12.17;;
2940;SDS011;1480;51.456;6.670;2023-11-21T05:22:00;14.37;;;9.00;;
2940;SDS011;1480;51.456;6.670;2023-11-21T05:24:27;24.93;;;10.87;;
2940;SDS011;1480;51.456;6.670;2023-11-21T05:26:54;18.80;;;11.10;;
2940;SDS011;1480;51.456;6.670;2023-11-21T05:29:21;18.73;;;10.80;;
2940;SDS011;1480;51.456;6.670;2023-11-21T05:31:47;19.57;;;9.83;;
2940;SDS011;1480;51.456;6.670;2023-11-21T05:34:15;19.47;;;10.63;;
2940;SDS011;1480;51.456;6.670;2023-11-21T05:36:42;28.80;;;12.20;;
2940;SDS011;1480;51.456;6.670;2023-11-21T05:39:10;29.70;;;12.67;;
2940;SDS011;1480;51.456;6.670;2023-11-21T05:41:37;25.73;;;13.00;;
2940;SDS011;1480;51.456;6.670;2023-11-21T05:44:04;23.40;;;11.33;;
2940;SDS011;1480;51.456;6.670;2023-11-21T05:46:31;35.80;;;15.03;;
2940;SDS011;1480;51.456;6.670;2023-11-21T05:48:58;34.37;;;12.47;;
2940;SDS011;1480;51.456;6.670;2023-11-21T05:51:26;24.97;;;12.17;;
2940;SDS011;1480;51.456;6.670;2023-11-21T05:53:55;30.33;;;13.30;;
2940;SDS011;1480;51.456;6.670;2023-11-21T05:56:22;30.67;;;14.60;;
2940;SDS011;1480;51.456;6.670;2023-11-21T05:58:48;32.93;;;14.63;;
2940;SDS011;1480;51.456;6.670;2023-11-21T06:01:16;30.37;;;14.50;;
2940;SDS011;1480;51.456;6.670;2023-11-21T06:03:43;24.17;;;14.50;;
2940;SDS011;1480;51.456;6.670;2023-11-21T06:06:10;26.17;;;12.83;;
2940;SDS011;1480;51.456;6.670;2023-11-21T06:08:38;30.83;;;15.07;;
2940;SDS011;1480;51.456;6.670;2023-11-21T06:11:05;25.37;;;11.30;;
2940;SDS011;1480;51.456;6.670;2023-11-21T06:13:32;26.93;;;13.80;;
2940;SDS011;1480;51.456;6.670;2023-11-21T06:15:58;30.80;;;13.17;;
2940;SDS011;1480;51.456;6.670;2023-11-21T06:18:25;32.07;;;14.80;;
2940;SDS011;1480;51.456;6.670;2023-11-21T06:20:52;41.03;;;16.83;;
2940;SDS011;1480;51.456;6.670;2023-11-21T06:23:19;35.60;;;14.03;;
2940;SDS011;1480;51.456;6.670;2023-11-21T06:25:47;41.47;;;16.00;;
2940;SDS011;1480;51.456;6.670;2023-11-21T06:28:13;32.70;;;16.07;;
2940;SDS011;1480;51.456;6.670;2023-11-21T06:30:42;28.60;;;15.57;;
2940;SDS011;1480;51.456;6.670;2023-11-21T06:33:10;28.40;;;13.10;;
2940;SDS011;1480;51.456;6.670;2023-11-21T06:35:37;27.67;;;14.10;;
2940;SDS011;1480;51.456;6.670;2023-11-21T06:38:05;28.53;;;13.97;;
2940;SDS011;1480;51.456;6.670;2023-11-21T06:40:31;34.40;;;15.80;;
2940;SDS011;1480;51.456;6.670;2023-11-21T06:43:00;24.57;;;13.80;;
2940;SDS011;1480;51.456;6.670;2023-11-21T06:45:26;28.97;;;14.43;;
2940;SDS011;1480;51.456;6.670;2023-11-21T06:47:53;30.50;;;14.47;;
2940;SDS011;1480;51.456;6.670;2023-11-21T06:50:20;32.80;;;14.30;;
2940;SDS011;1480;51.456;6.670;2023-11-21T06:52:47;24.83;;;12.47;;
2940;SDS011;1480;51.456;6.670;2023-11-21T06:55:13;33.13;;;13.93;;
2940;SDS011;1480;51.456;6.670;2023-11-21T06:57:41;26.43;;;13.50;;
2940;SDS011;1480;51.456;6.670;2023-11-21T07:00:10;29.30;;;12.90;;
2940;SDS011;1480;51.456;6.670;2023-11-21T07:02:37;30.00;;;14.93;;
2940;SDS011;1480;51.456;6.670;2023-11-21T07:05:04;30.70;;;13.63;;
2940;SDS011;1480;51.456;6.670;2023-11-21T07:07:32;26.53;;;14.17;;
2940;SDS011;1480;51.456;6.670;2023-11-21T07:10:00;31.93;;;14.10;;
2940;SDS011;1480;51.456;6.670;2023-11-21T07:12:28;33.87;;;15.43;;
2940;SDS011;1480;51.456;6.670;2023-11-21T07:14:56;28.17;;;14.43;;
2940;SDS011;1480;51.456;6.670;2023-11-21T07:17:24;20.00;;;11.57;;
2940;SDS011;1480;51.456;6.670;2023-11-21T07:19:51;24.10;;;13.63;;
2940;SDS011;1480;51.456;6.670;2023-11-21T07:22:17;27.83;;;13.43;;
2940;SDS011;1480;51.456;6.670;2023-11-21T07:24:47;23.87;;;11.57;;
2940;SDS011;1480;51.456;6.670;2023-11-21T07:27:14;27.53;;;14.10;;
2940;SDS011;1480;51.456;6.670;2023-11-21T07:29:41;25.67;;;13.67;;
2940;SDS011;1480;51.456;6.670;2023-11-21T07:32:07;24.30;;;12.60;;
2940;SDS011;1480;51.456;6.670;2023-11-21T07:34:36;24.67;;;11.90;;
2940;SDS011;1480;51.456;6.670;2023-11-21T07:37:02;26.47;;;12.63;;
2940;SDS011;1480;51.456;6.670;2023-11-21T07:39:29;31.43;;;14.90;;
2940;SDS011;1480;51.456;6.670;2023-11-21T07:41:56;31.87;;;13.47;;
2940;SDS011;1480;51.456;6.670;2023-11-21T07:44:23;27.83;;;13.70;;
2940;SDS011;1480;51.456;6.670;2023-11-21T07:46:50;36.97;;;15.67;;
2940;SDS011;1480;51.456;6.670;2023-11-21T07:49:16;33.97;;;15.43;;
2940;SDS011;1480;51.456;6.670;2023-11-21T07:51:47;30.40;;;13.90;;
2940;SDS011;1480;51.456;6.670;2023-11-21T07:54:13;35.97;;;16.37;;
2940;SDS011;1480;51.456;6.670;2023-11-21T07:56:41;26.57;;;14.20;;
2940;SDS011;1480;51.456;6.670;2023-11-21T07:59:07;28.33;;;12.70;;
2940;SDS011;1480;51.456;6.670;2023-11-21T08:01:34;32.50;;;16.87;;
2940;SDS011;1480;51.456;6.670;2023-11-21T08:04:01;28.63;;;11.60;;
2940;SDS011;1480;51.456;6.670;2023-11-21T08:06:28;24.30;;;13.90;;
2940;SDS011;1480;51.456;6.670;2023-11-21T08:08:57;30.87;;;13.20;;
2940;SDS011;1480;51.456;6.670;2023-11-21T08:11:24;26.93;;;12.70;;
2940;SDS011;1480;51.456;6.670;2023-11-21T08:13:51;25.50;;;12.30;;
2940;SDS011;1480;51.456;6.670;2023-11-21T08:16:18;25.57;;;12.57;;
2940;SDS011;1480;51.456;6.670;2023-11-21T08:18:45;28.60;;;12.90;;
2940;SDS011;1480;51.456;6.670;2023-11-21T08:21:12;30.20;;;14.13;;
2940;SDS011;1480;51.456;6.670;2023-11-21T08:23:39;28.03;;;12.43;;
2940;SDS011;1480;51.456;6.670;2023-11-21T08:26:07;29.33;;;14.13;;
2940;SDS011;1480;51.456;6.670;2023-11-21T08:28:34;25.93;;;13.03;;
2940;SDS011;1480;51.456;6.670;2023-11-21T08:31:00;30.40;;;13.97;;
2940;SDS011;1480;51.456;6.670;2023-11-21T08:33:27;24.93;;;15.77;;
2940;SDS011;1480;51.456;6.670;2023-11-21T08:35:54;26.13;;;12.67;;
2940;SDS011;1480;51.456;6.670;2023-11-21T08:38:20;34.90;;;13.97;;
2940;SDS011;1480;51.456;6.670;2023-11-21T08:40:47;25.17;;;13.10;;
2940;SDS011;1480;51.456;6.670;2023-11-21T08:43:15;27.77;;;12.63;;
2940;SDS011;1480;51.456;6.670;2023-11-21T08:45:45;27.90;;;13.13;;
2940;SDS011;1480;51.456;6.670;2023-11-21T08:48:12;22.63;;;11.70;;
2940;SDS011;1480;51.456;6.670;2023-11-21T08:50:38;28.83;;;14.30;;
2940;SDS011;1480;51.456;6.670;2023-11-21T08:53:05;26.07;;;12.27;;
2940;SDS011;1480;51.456;6.670;2023-11-21T08:55:32;23.30;;;12.70;;
2940;SDS011;1480;51.456;6.670;2023-11-21T08:58:02;20.10;;;12.47;;
2940;SDS011;1480;51.456;6.670;2023-11-21T09:00:31;28.53;;;12.87;;
2940;SDS011;1480;51.456;6.670;2023-11-21T09:02:58;24.20;;;11.70;;
2940;SDS011;1480;51.456;6.670;2023-11-21T09:05:24;29.33;;;13.77;;
2940;SDS011;1480;51.456;6.670;2023-11-21T09:07:51;30.47;;;15.20;;
2940;SDS011;1480;51.456;6.670;2023-11-21T09:10:18;25.77;;;14.10;;
2940;SDS011;1480;51.456;6.670;2023-11-21T09:12:46;29.00;;;13.37;;
2940;SDS011;1480;51.456;6.670;2023-11-21T09:15:12;22.33;;;12.30;;
2940;SDS011;1480;51.456;6.670;2023-11-21T09:17:41;30.03;;;12.77;;
2940;SDS011;1480;51.456;6.670;2023-11-21T09:20:09;31.33;;;13.57;;
2940;SDS011;1480;51.456;6.670;2023-11-21T09:22:36;27.57;;;13.50;;
2940;SDS011;1480;51.456;6.670;2023-11-21T09:25:03;24.80;;;12.37;;
2940;SDS011;1480;51.456;6.670;2023-11-21T09:27:31;33.70;;;14.03;;
2940;SDS011;1480;51.456;6.670;2023-11-21T09:29:57;26.40;;;12.97;;
2940;SDS011;1480;51.456;6.670;2023-11-21T09:32:24;28.83;;;14.27;;
2940;SDS011;1480;51.456;6.670;2023-11-21T09:34:52;26.37;;;14.97;;
2940;SDS011;1480;51.456;6.670;2023-11-21T09:37:20;24.30;;;13.40;;
2940;SDS011;1480;51.456;6.670;2023-11-21T09:39:47;29.73;;;12.63;;
2940;SDS011;1480;51.456;6.670;2023-11-21T09:42:15;34.93;;;14.23;;
2940;SDS011;1480;51.456;6.670;2023-11-21T09:44:48;36.20;;;14.20;;
2940;SDS011;1480;51.456;6.670;2023-11-21T09:47:21;33.27;;;13.60;;
2940;SDS011;1480;51.456;6.670;2023-11-21T09:49:48;26.50;;;13.17;;
2940;SDS011;1480;51.456;6.670;2023-11-21T09:52:18;36.90;;;16.43;;
2940;SDS011;1480;51.456;6.670;2023-11-21T09:54:50;39.10;;;15.30;;
2940;SDS011;1480;51.456;6.670;2023-11-21T09:57:18;33.00;;;19.00;;
2940;SDS011;1480;51.456;6.670;2023-11-21T09:59:46;44.57;;;18.63;;
2940;SDS011;1480;51.456;6.670;2023-11-21T10:02:13;37.60;;;14.20;;
2940;SDS011;1480;51.456;6.670;2023-11-21T10:04:41;27.17;;;15.00;;
2940;SDS011;1480;51.456;6.670;2023-11-21T10:07:08;29.03;;;13.97;;
2940;SDS011;1480;51.456;6.670;2023-11-21T10:09:36;37.20;;;16.50;;
2940;SDS011;1480;51.456;6.670;2023-11-21T10:12:04;30.70;;;15.00;;
2940;SDS011;1480;51.456;6.670;2023-11-21T10:14:33;24.00;;;13.37;;
2940;SDS011;1480;51.456;6.670;2023-11-21T10:17:01;33.53;;;15.77;;
2940;SDS011;1480;51.456;6.670;2023-11-21T10:19:28;32.00;;;15.03;;
2940;SDS011;1480;51.456;6.670;2023-11-21T10:21:55;30.67;;;13.97;;
2940;SDS011;1480;51.456;6.670;2023-11-21T10:24:23;28.10;;;15.43;;
2940;SDS011;1480;51.456;6.670;2023-11-21T10:26:51;29.50;;;15.90;;
2940;SDS011;1480;51.456;6.670;2023-11-21T10:29:19;25.10;;;15.40;;
2940;SDS011;1480;51.456;6.670;2023-11-21T10:31:48;38.90;;;16.77;;
2940;SDS011;1480;51.456;6.670;2023-11-21T10:34:16;36.30;;;17.23;;
2940;SDS011;1480;51.456;6.670;2023-11-21T10:36:43;29.23;;;15.23;;
2940;SDS011;1480;51.456;6.670;2023-11-21T10:39:13;34.70;;;17.50;;
2940;SDS011;1480;51.456;6.670;2023-11-21T10:41:43;32.43;;;17.10;;
2940;SDS011;1480;51.456;6.670;2023-11-21T10:44:11;41.90;;;18.60;;
2940;SDS011;1480;51.456;6.670;2023-11-21T10:46:45;32.83;;;18.00;;
2940;SDS011;1480;51.456;6.670;2023-11-21T10:49:15;41.03;;;19.07;;
2940;SDS011;1480;51.456;6.670;2023-11-21T10:51:43;42.47;;;19.70;;
2940;SDS011;1480;51.456;6.670;2023-11-21T10:54:10;37.80;;;17.17;;
2940;SDS011;1480;51.456;6.670;2023-11-21T10:56:38;32.77;;;19.37;;
2940;SDS011;1480;51.456;6.670;2023-11-21T10:59:08;35.03;;;17.80;;
2940;SDS011;1480;51.456;6.670;2023-11-21T11:01:41;37.30;;;17.57;;
2940;SDS011;1480;51.456;6.670;2023-11-21T11:04:09;33.53;;;16.37;;
2940;SDS011;1480;51.456;6.670;2023-11-21T11:06:40;31.10;;;19.10;;
2940;SDS011;1480;51.456;6.670;2023-11-21T11:09:07;38.93;;;19.60;;
2940;SDS011;1480;51.456;6.670;2023-11-21T11:11:34;35.37;;;19.30;;
2940;SDS011;1480;51.456;6.670;2023-11-21T11:14:04;35.37;;;17.77;;
2940;SDS011;1480;51.456;6.670;2023-11-21T11:16:31;35.50;;;19.50;;
2940;SDS011;1480;51.456;6.670;2023-11-21T11:19:01;31.37;;;17.70;;
2940;SDS011;1480;51.456;6.670;2023-11-21T11:21:31;28.43;;;14.80;;
2940;SDS011;1480;51.456;6.670;2023-11-21T11:24:10;26.30;;;14.00;;
2940;SDS011;1480;51.456;6.670;2023-11-21T11:26:42;27.27;;;13.47;;
2940;SDS011;1480;51.456;6.670;2023-11-21T11:29:14;26.10;;;15.13;;
2940;SDS011;1480;51.456;6.670;2023-11-21T11:31:49;34.40;;;15.17;;
2940;SDS011;1480;51.456;6.670;2023-11-21T11:34:23;29.67;;;14.40;;
2940;SDS011;1480;51.456;6.670;2023-11-21T11:36:57;34.83;;;14.50;;
2940;SDS011;1480;51.456;6.670;2023-11-21T11:39:27;31.53;;;14.70;;
2940;SDS011;1480;51.456;6.670;2023-11-21T11:41:55;37.67;;;16.20;;
2940;SDS011;1480;51.456;6.670;2023-11-21T11:44:46;33.23;;;14.77;;
2940;SDS011;1480;51.456;6.670;2023-11-21T11:47:21;24.90;;;12.90;;
2940;SDS011;1480;51.456;6.670;2023-11-21T11:50:01;28.00;;;13.27;;
2940;SDS011;1480;51.456;6.670;2023-11-21T11:52:39;31.93;;;16.10;;
2940;SDS011;1480;51.456;6.670;2023-11-21T11:55:06;37.43;;;15.73;;
2940;SDS011;1480;51.456;6.670;2023-11-21T11:57:36;26.30;;;15.30;;
2940;SDS011;1480;51.456;6.670;2023-11-21T12:00:07;30.97;;;15.13;;
2940;SDS011;1480;51.456;6.670;2023-11-21T12:02:41;29.37;;;14.90;;
2940;SDS011;1480;51.456;6.670;2023-11-21T12:05:10;39.13;;;16.83;;
2940;SDS011;1480;51.456;6.670;2023-11-21T12:07:45;29.77;;;14.67;;
2940;SDS011;1480;51.456;6.670;2023-11-21T12:10:13;28.50;;;14.83;;
2940;SDS011;1480;51.456;6.670;2023-11-21T12:12:43;30.23;;;16.30;;
2940;SDS011;1480;51.456;6.670;2023-11-21T12:15:11;31.67;;;16.80;;
2940;SDS011;1480;51.456;6.670;2023-11-21T12:17:39;33.10;;;13.87;;
2940;SDS011;1480;51.456;6.670;2023-11-21T12:20:10;40.17;;;16.50;;
2940;SDS011;1480;51.456;6.670;2023-11-21T12:22:44;35.37;;;19.07;;
2940;SDS011;1480;51.456;6.670;2023-11-21T12:25:13;36.23;;;15.67;;
2940;SDS011;1480;51.456;6.670;2023-11-21T12:27:42;39.53;;;17.90;;
2940;SDS011;1480;51.456;6.670;2023-11-21T12:30:10;33.03;;;15.37;;
2940;SDS011;1480;51.456;6.670;2023-11-21T12:32:40;36.00;;;15.27;;
2940;SDS011;1480;51.456;6.670;2023-11-21T12:35:09;34.90;;;14.93;;
2940;SDS011;1480;51.456;6.670;2023-11-21T12:37:36;30.40;;;14.43;;
2940;SDS011;1480;51.456;6.670;2023-11-21T12:40:05;28.77;;;12.80;;
2940;SDS011;1480;51.456;6.670;2023-11-21T12:42:33;25.50;;;13.00;;
2940;SDS011;1480;51.456;6.670;2023-11-21T12:45:12;25.77;;;13.20;;
2940;SDS011;1480;51.456;6.670;2023-11-21T12:47:45;25.57;;;11.80;;
2940;SDS011;1480;51.456;6.670;2023-11-21T12:50:14;25.67;;;11.40;;
2940;SDS011;1480;51.456;6.670;2023-11-21T12:52:41;21.80;;;10.93;;
2940;SDS011;1480;51.456;6.670;2023-11-21T12:55:13;25.23;;;12.97;;
2940;SDS011;1480;51.456;6.670;2023-11-21T12:57:43;24.33;;;11.57;;
2940;SDS011;1480;51.456;6.670;2023-11-21T13:00:11;29.00;;;11.13;;
2940;SDS011;1480;51.456;6.670;2023-11-21T13:02:43;25.57;;;12.83;;
2940;SDS011;1480;51.456;6.670;2023-11-21T13:05:10;25.03;;;10.83;;
2940;SDS011;1480;51.456;6.670;2023-11-21T13:07:48;24.93;;;11.07;;
2940;SDS011;1480;51.456;6.670;2023-11-21T13:10:16;24.80;;;12.63;;
2940;SDS011;1480;51.456;6.670;2023-11-21T13:12:43;24.13;;;10.97;;
2940;SDS011;1480;51.456;6.670;2023-11-21T13:15:13;25.17;;;11.03;;
2940;SDS011;1480;51.456;6.670;2023-11-21T13:17:42;20.13;;;10.57;;
2940;SDS011;1480;51.456;6.670;2023-11-21T13:20:10;17.47;;;10.33;;
2940;SDS011;1480;51.456;6.670;2023-11-21T13:22:44;18.50;;;8.17;;
2940;SDS011;1480;51.456;6.670;2023-11-21T13:25:13;17.13;;;7.50;;
2940;SDS011;1480;51.456;6.670;2023-11-21T13:27:43;18.77;;;9.47;;
2940;SDS011;1480;51.456;6.670;2023-11-21T13:30:11;13.10;;;8.27;;
2940;SDS011;1480;51.456;6.670;2023-11-21T13:32:41;15.93;;;8.10;;
2940;SDS011;1480;51.456;6.670;2023-11-21T13:35:07;13.70;;;8.27;;
2940;SDS011;1480;51.456;6.670;2023-11-21T13:37:40;14.80;;;8.70;;
2940;SDS011;1480;51.456;6.670;2023-11-21T13:40:07;13.27;;;7.13;;
2940;SDS011;1480;51.456;6.670;2023-11-21T13:42:41;18.47;;;7.13;;
2940;SDS011;1480;51.456;6.670;2023-11-21T13:45:09;15.40;;;9.23;;
2940;SDS011;1480;51.456;6.670;2023-11-21T13:47:37;15.70;;;6.50;;
2940;SDS011;1480;51.456;6.670;2023-11-21T13:50:05;13.70;;;7.43;;
2940;SDS011;1480;51.456;6.670;2023-11-21T13:52:42;12.60;;;7.00;;
2940;SDS011;1480;51.456;6.670;2023-11-21T13:55:09;15.17;;;7.87;;
2940;SDS011;1480;51.456;6.670;2023-11-21T13:57:41;16.07;;;7.70;;
2940;SDS011;1480;51.456;6.670;2023-11-21T14:00:14;15.03;;;7.67;;
2940;SDS011;1480;51.456;6.670;2023-11-21T14:03:02;16.17;;;7.80;;
2940;SDS011;1480;51.456;6.670;2023-11-21T14:05:33;20.77;;;8.60;;
2940;SDS011;1480;51.456;6.670;2023-11-21T14:08:00;17.43;;;8.47;;
2940;SDS011;1480;51.456;6.670;2023-11-21T14:10:30;17.73;;;9.80;;
2940;SDS011;1480;51.456;6.670;2023-11-21T14:13:06;20.03;;;9.40;;
2940;SDS011;1480;51.456;6.670;2023-11-21T14:15:35;18.70;;;10.07;;
2940;SDS011;1480;51.456;6.670;2023-11-21T14:18:06;23.33;;;11.20;;
2940;SDS011;1480;51.456;6.670;2023-11-21T14:20:35;20.67;;;10.77;;
2940;SDS011;1480;51.456;6.670;2023-11-21T14:23:02;18.97;;;10.30;;
2940;SDS011;1480;51.456;6.670;2023-11-21T14:25:29;23.00;;;11.60;;
2940;SDS011;1480;51.456;6.670;2023-11-21T14:27:57;28.50;;;7.80;;
2940;SDS011;1480;51.456;6.670;2023-11-21T14:30:25;31.87;;;11.53;;
2940;SDS011;1480;51.456;6.670;2023-11-21T14:32:54;25.43;;;10.77;;
2940;SDS011;1480;51.456;6.670;2023-11-21T14:35:20;16.07;;;9.50;;
2940;SDS011;1480;51.456;6.670;2023-11-21T14:37:47;22.63;;;10.80;;
2940;SDS011;1480;51.456;6.670;2023-11-21T14:40:14;16.50;;;9.30;;
2940;SDS011;1480;51.456;6.670;2023-11-21T14:42:43;23.10;;;10.07;;
2940;SDS011;1480;51.456;6.670;2023-11-21T14:45:13;21.37;;;10.50;;
2940;SDS011;1480;51.456;6.670;2023-11-21T14:47:46;20.67;;;11.40;;
2940;SDS011;1480;51.456;6.670;2023-11-21T14:50:21;26.23;;;11.23;;
2940;SDS011;1480;51.456;6.670;2023-11-21T14:53:05;18.13;;;9.73;;
2940;SDS011;1480;51.456;6.670;2023-11-21T14:55:32;22.23;;;10.90;;
2940;SDS011;1480;51.456;6.670;2023-11-21T14:58:06;20.27;;;9.43;;
2940;SDS011;1480;51.456;6.670;2023-11-21T15:00:37;16.57;;;9.43;;